Time;durP1;ratioP1;P1;durP2;ratioP2;P2;SDS_P1;SDS_P2;PMS_P1;PMS_P2;Temp;Humidity;BMP_temperature;BMP_pressure;BME280_temperature;BME280_humidity;BME280_pressure;Samples;Min_cycle;Max_cycle;Signal;HPM_P1;HPM_P2
2023/03/04 00:01:34;;;;;;;;;;;6.90;74.00;;;5.75;58.95;101465.91;5041367;28;20330;-77
2023/03/04 00:04:00;;;;;;;;;;;6.90;73.90;;;5.78;58.90;101465.59;5032715;28;19929;-77
2023/03/04 00:06:27;;;;;;;;;;;6.90;74.20;;;5.79;59.25;101468.09;5032629;28;19932;-77
2023/03/04 00:08:54;;;;;;;;;;;6.90;74.30;;;5.78;58.80;101465.59;5036754;28;19928;-77
2023/03/04 00:11:23;;;;;;;;;;;6.90;74.10;;;5.71;58.85;101470.69;5047515;28;20539;-77
2023/03/04 00:13:50;;;;;;;;;;;6.90;73.80;;;5.74;58.88;101465.06;5040679;28;19936;-77
2023/03/04 00:16:17;;;;;;;;;;;6.90;74.10;;;5.76;59.03;101468.41;5043338;28;19935;-77
2023/03/04 00:18:43;;;;;;;;;;;6.90;74.30;;;5.79;59.44;101469.91;5039812;28;19925;-78
2023/03/04 00:21:10;;;;;;;;;;;6.90;74.40;;;5.74;58.79;101466.91;5047541;28;19929;-77
2023/03/04 00:23:40;;;;;;;;;;;6.90;74.20;;;5.77;59.17;101461.31;5045071;28;20391;-77
2023/03/04 00:26:08;;;;;;;;;;;6.90;74.30;;;5.80;58.93;101459.16;5046807;28;19964;-77
2023/03/04 00:28:37;;;;;;;;;;;6.90;74.30;;;5.79;58.84;101465.44;5043737;28;19935;-77
2023/03/04 00:31:04;;;;;;;;;;;6.90;74.30;;;5.82;59.03;101470.44;5037174;28;19968;-75
2023/03/04 00:33:31;;;;;;;;;;;6.90;74.50;;;5.85;59.27;101466.63;5030738;28;19932;-75
2023/03/04 00:35:59;;;;;;;;;;;6.90;74.50;;;5.83;59.19;101455.38;5041224;28;20007;-77
2023/03/04 00:38:26;;;;;;;;;;;6.90;74.40;;;5.83;58.70;101463.31;5039972;28;19951;-77
2023/03/04 00:40:53;;;;;;;;;;;6.90;74.20;;;5.81;59.06;101460.00;5040161;28;19925;-75
2023/03/04 00:43:20;;;;;;;;;;;6.90;74.40;;;5.82;59.01;101462.50;5048874;28;19929;-76
2023/03/04 00:45:49;;;;;;;;;;;6.90;74.40;;;5.81;59.02;101455.53;5049788;28;19929;-77
2023/03/04 00:48:16;;;;;;;;;;;6.90;74.50;;;5.82;59.35;101454.56;5033618;28;19933;-74
2023/03/04 00:50:43;;;;;;;;;;;6.90;74.50;;;5.77;58.76;101454.19;5045892;28;19976;-74
2023/03/04 00:53:10;;;;;;;;;;;6.90;74.20;;;5.76;59.04;101451.69;5051483;28;19936;-75
2023/03/04 00:55:37;;;;;;;;;;;6.90;74.30;;;5.79;59.17;101451.38;5043290;28;19935;-74
2023/03/04 00:58:04;;;;;;;;;;;6.90;74.50;;;5.82;59.56;101454.56;5050805;28;19935;-74
2023/03/04 01:00:31;;;;;;;;;;;6.90;74.50;;;5.77;58.59;101445.44;5041244;28;20390;-77
2023/03/04 01:03:00;;;;;;;;;;;6.90;74.10;;;5.72;59.44;101450.34;5036476;28;19933;-77
2023/03/04 01:05:27;;;;;;;;;;;6.90;74.20;;;5.78;59.35;101444.44;5037960;28;20342;-78
2023/03/04 01:07:53;;;;;;;;;;;6.90;74.50;;;5.82;59.31;101445.78;5042856;28;19935;-77
2023/03/04 01:10:21;;;;;;;;;;;6.90;74.50;;;5.85;59.57;101446.28;5032829;28;19936;-77
2023/03/04 01:12:48;;;;;;;;;;;7.00;74.60;;;5.88;59.63;101439.84;5036904;28;20354;-75
2023/03/04 01:15:15;;;;;;;;;;;7.00;74.60;;;5.87;59.25;101438.22;5035766;28;19929;-77
2023/03/04 01:17:42;;;;;;;;;;;7.00;74.50;;;5.86;59.41;101436.56;5046649;28;20023;-78
2023/03/04 01:20:11;;;;;;;;;;;7.00;74.30;;;5.85;59.64;101442.81;5034840;28;19933;-77
2023/03/04 01:22:38;;;;;;;;;;;7.00;74.50;;;5.80;58.93;101437.16;5031580;28;19932;-77
2023/03/04 01:25:06;;;;;;;;;;;7.00;74.10;;;5.80;59.11;101435.34;5029844;28;19929;-77
2023/03/04 01:27:33;;;;;;;;;;;7.00;74.30;;;5.75;59.21;101431.50;5039950;28;20007;-78
2023/03/04 01:30:00;;;;;;;;;;;7.00;74.00;;;5.75;59.58;101429.69;5046129;28;20353;-78
2023/03/04 01:32:28;;;;;;;;;;;6.90;74.20;;;5.83;59.29;101428.91;5038557;28;19925;-77
2023/03/04 01:34:55;;;;;;;;;;;7.00;74.30;;;5.84;59.11;101427.91;5029985;28;20263;-77
2023/03/04 01:37:24;;;;;;;;;;;7.00;74.40;;;5.83;59.41;101424.44;5045055;28;19929;-77
2023/03/04 01:39:51;;;;;;;;;;;7.00;74.50;;;5.75;59.44;101420.91;5040888;28;20032;-77
2023/03/04 01:42:20;;;;;;;;;;;7.00;74.30;;;5.76;59.53;101425.22;5044609;28;19929;-78
2023/03/04 01:44:48;;;;;;;;;;;7.00;74.40;;;5.74;59.32;101428.03;5029342;28;19980;-77
2023/03/04 01:47:15;;;;;;;;;;;6.90;74.50;;;5.79;59.58;101422.25;5044578;28;19924;-78
2023/03/04 01:49:42;;;;;;;;;;;6.90;74.70;;;5.78;59.53;101420.59;5040227;28;20252;-77
2023/03/04 01:52:12;;;;;;;;;;;7.00;74.40;;;5.82;59.21;101414.03;5038813;28;19925;-77
2023/03/04 01:54:40;;;;;;;;;;;6.90;74.30;;;5.83;58.89;101420.97;5037669;28;20607;-77
2023/03/04 01:57:16;;;;;;;;;;;7.00;74.20;;;5.79;58.98;101417.81;5039269;28;19928;-77
2023/03/04 01:59:43;;;;;;;;;;;6.90;74.30;;;5.79;59.38;101415.16;5029201;28;19979;-77
2023/03/04 02:02:10;;;;;;;;;;;6.90;74.30;;;5.82;59.22;101419.31;5029330;28;19925;-77
2023/03/04 02:04:37;;;;;;;;;;;7.00;74.50;;;5.86;59.30;101410.91;5037190;28;19986;-77
2023/03/04 02:07:05;;;;;;;;;;;7.00;74.50;;;5.89;59.52;101409.75;5048888;28;19986;-77
2023/03/04 02:09:33;;;;;;;;;;;7.00;74.60;;;5.89;59.47;101413.22;5028373;28;19929;-77
2023/03/04 02:12:02;;;;;;;;;;;7.00;74.70;;;5.89;59.70;101409.75;5029371;28;19933;-77
2023/03/04 02:14:29;;;;;;;;;;;7.10;74.90;;;5.90;59.60;101406.09;5033355;28;20370;-77
2023/03/04 02:16:56;;;;;;;;;;;7.00;74.60;;;5.91;59.61;101402.50;5037915;28;19944;-77
2023/03/04 02:19:34;;;;;;;;;;;7.00;74.50;;;5.86;59.34;101408.25;5039096;28;20000;-78
2023/03/04 02:22:01;;;;;;;;;;;7.00;74.70;;;5.90;59.74;101411.41;5031321;28;19975;-77
2023/03/04 02:24:34;;;;;;;;;;;7.00;74.70;;;5.84;59.59;101401.44;5042060;28;20015;-77
2023/03/04 02:27:02;;;;;;;;;;;7.00;74.70;;;5.82;59.68;101398.97;5043338;28;20014;-77
2023/03/04 02:29:29;;;;;;;;;;;7.00;74.70;;;5.79;59.56;101401.09;5033961;28;19925;-77
2023/03/04 02:31:56;;;;;;;;;;;7.00;74.50;;;5.83;59.78;101405.91;5044644;28;19928;-78
2023/03/04 02:34:25;;;;;;;;;;;7.00;74.70;;;5.86;59.41;101399.50;5044713;28;19925;-77
2023/03/04 02:36:54;;;;;;;;;;;7.00;74.70;;;5.84;59.44;101398.81;5034939;28;19983;-78
2023/03/04 02:39:25;;;;;;;;;;;7.00;74.90;;;5.82;59.44;101392.84;5044415;28;19933;-77
2023/03/04 02:41:53;;;;;;;;;;;7.00;74.70;;;5.80;59.45;101400.09;5035018;28;19951;-77
2023/03/04 02:44:24;;;;;;;;;;;7.00;74.70;;;5.81;59.51;101391.19;5037750;28;19943;-78
2023/03/04 02:46:53;;;;;;;;;;;7.00;74.70;;;5.85;59.64;101392.50;5034727;28;20147;-77
2023/03/04 02:49:21;;;;;;;;;;;7.00;74.80;;;5.88;59.94;101389.56;5045464;28;19929;-77
2023/03/04 02:51:52;;;;;;;;;;;7.00;74.80;;;5.90;59.76;101384.94;5049445;28;20299;-77
2023/03/04 02:54:21;;;;;;;;;;;7.00;74.80;;;5.90;59.95;101383.13;5039437;28;19936;-77
2023/03/04 02:56:49;;;;;;;;;;;7.00;74.90;;;5.92;59.50;101375.06;5045218;28;19936;-77
2023/03/04 02:59:17;;;;;;;;;;;7.10;75.00;;;5.84;59.04;101381.09;5030705;28;19964;-77
2023/03/04 03:01:46;;;;;;;;;;;7.00;74.40;;;5.79;59.63;101377.28;5028140;28;19929;-77
2023/03/04 03:04:13;;;;;;;;;;;7.00;74.40;;;5.76;59.14;101378.44;5032374;28;19939;-77
2023/03/04 03:06:41;;;;;;;;;;;7.00;74.10;;;5.76;59.37;101381.06;5032700;28;20083;-78
2023/03/04 03:09:08;;;;;;;;;;;7.00;74.30;;;5.79;59.27;101378.09;5045538;28;19983;-77
2023/03/04 03:11:35;;;;;;;;;;;7.00;74.30;;;5.78;59.79;101375.63;5037973;28;19925;-77
2023/03/04 03:14:03;;;;;;;;;;;7.00;74.50;;;5.72;58.81;101370.97;5032474;28;19928;-77
2023/03/04 03:16:31;;;;;;;;;;;6.90;74.00;;;5.75;59.04;101373.28;5033385;28;19968;-75
2023/03/04 03:18:59;;;;;;;;;;;6.90;74.10;;;5.76;59.15;101366.97;5055384;22;19937;-85
2023/03/04 03:21:26;;;;;;;;;;;6.90;74.30;;;5.78;59.45;101378.25;5043860;28;20350;-85
2023/03/04 03:23:53;;;;;;;;;;;6.90;74.30;;;5.80;58.94;101373.63;5042454;28;20291;-84
2023/03/04 03:26:20;;;;;;;;;;;6.90;74.10;;;5.76;58.93;101365.19;5050042;28;19968;-85
2023/03/04 03:28:47;;;;;;;;;;;6.90;73.90;;;5.79;58.92;101364.88;5035280;28;19929;-85
2023/03/04 03:31:14;;;;;;;;;;;7.00;74.30;;;5.79;59.21;101362.22;5039859;28;20028;-85
2023/03/04 03:33:44;;;;;;;;;;;7.00;74.30;;;5.82;59.27;101361.91;5047512;28;19934;-85
2023/03/04 03:36:13;;;;;;;;;;;7.10;74.60;;;5.87;59.46;101359.63;5023006;28;20387;-86
2023/03/04 03:38:40;;;;;;;;;;;7.00;74.50;;;5.90;59.02;101354.00;5013274;28;19963;-85
2023/03/04 03:41:07;;;;;;;;;;;7.00;74.40;;;5.91;59.21;101353.06;5013137;28;19953;-85
2023/03/04 03:43:34;;;;;;;;;;;7.00;74.40;;;5.93;59.09;101350.25;5042786;28;20013;-85
2023/03/04 03:46:01;;;;;;;;;;;7.00;74.30;;;5.92;58.80;101352.06;5012777;28;19929;-85
2023/03/04 03:48:28;;;;;;;;;;;7.00;74.10;;;5.91;58.92;101358.34;5031610;28;20019;-85
2023/03/04 03:50:55;;;;;;;;;;;7.00;74.10;;;5.88;59.23;101355.97;5032615;28;19929;-85
2023/03/04 03:53:23;;;;;;;;;;;7.00;74.20;;;5.85;58.75;101363.41;5032333;28;19955;-85
2023/03/04 03:55:50;;;;;;;;;;;7.00;74.10;;;5.75;58.89;101360.03;5023012;28;19994;-85
2023/03/04 03:58:17;;;;;;;;;;;7.00;73.90;;;5.74;58.85;101353.91;5029833;28;20398;-85
2023/03/04 04:00:44;;;;;;;;;;;7.00;73.80;;;5.76;58.93;101359.03;5031312;28;20387;-86
2023/03/04 04:03:13;;;;;;;;;;;7.00;74.00;;;5.84;59.02;101351.16;5029472;28;19932;-85
2023/03/04 04:05:40;;;;;;;;;;;7.20;74.40;;;5.90;59.02;101355.81;5024368;28;19928;-85
2023/03/04 04:08:07;;;;;;;;;;;7.00;74.30;;;5.92;59.25;101352.06;5031787;28;19931;-85
2023/03/04 04:10:35;;;;;;;;;;;7.00;74.40;;;5.94;59.06;101354.53;5024105;28;19932;-85
2023/03/04 04:13:02;;;;;;;;;;;7.00;74.30;;;5.88;59.19;101349.84;5031920;28;19933;-85
2023/03/04 04:15:29;;;;;;;;;;;7.00;74.20;;;5.87;59.12;101348.19;5031078;28;19929;-85
2023/03/04 04:17:56;;;;;;;;;;;7.00;74.50;;;5.90;59.24;101348.72;5031225;28;19925;-85
2023/03/04 04:20:23;;;;;;;;;;;7.00;74.50;;;5.93;59.48;101351.06;5026562;28;20019;-85
2023/03/04 04:22:50;;;;;;;;;;;7.10;74.50;;;5.82;59.21;101345.19;5029999;28;19945;-85
2023/03/04 04:25:17;;;;;;;;;;;7.00;73.90;;;5.85;59.43;101343.03;5029902;28;19952;-85
2023/03/04 04:27:46;;;;;;;;;;;7.00;74.30;;;5.91;59.09;101347.75;5029924;28;20016;-86
2023/03/04 04:30:13;;;;;;;;;;;7.00;74.40;;;5.94;59.27;101346.59;5030536;28;20316;-85
2023/03/04 04:32:40;;;;;;;;;;;7.00;74.40;;;5.97;59.08;101348.13;5023242;28;19926;-85
2023/03/04 04:35:08;;;;;;;;;;;7.10;74.60;;;5.95;59.52;101342.94;5028751;28;20334;-86
2023/03/04 04:37:35;;;;;;;;;;;7.10;74.50;;;5.95;59.14;101342.94;5022340;28;19936;-85
2023/03/04 04:40:02;;;;;;;;;;;7.10;74.50;;;5.90;59.19;101351.38;5031662;28;19935;-85
2023/03/04 04:42:29;;;;;;;;;;;7.10;74.40;;;5.92;59.69;101351.22;5032273;28;19925;-85
2023/03/04 04:44:57;;;;;;;;;;;7.10;74.60;;;5.84;59.70;101349.34;5017830;28;19932;-85
2023/03/04 04:47:24;;;;;;;;;;;7.00;74.50;;;5.87;59.64;101351.69;5026681;28;20385;-85
2023/03/04 04:49:51;;;;;;;;;;;7.00;74.60;;;5.91;59.55;101354.84;5033654;28;19930;-85
2023/03/04 04:52:18;;;;;;;;;;;7.10;74.70;;;5.86;59.42;101350.03;5031673;28;19929;-85
2023/03/04 04:54:45;;;;;;;;;;;7.00;74.50;;;5.80;59.56;101358.56;5029703;28;19929;-85
2023/03/04 04:57:12;;;;;;;;;;;7.00;74.30;;;5.81;59.71;101354.97;5028809;28;20330;-85
2023/03/04 04:59:39;;;;;;;;;;;7.00;74.50;;;5.80;59.63;101355.94;5031153;28;19929;-85
2023/03/04 05:02:08;;;;;;;;;;;7.00;74.50;;;5.86;59.55;101357.97;5022073;28;19925;-85
2023/03/04 05:04:35;;;;;;;;;;;7.00;74.50;;;5.86;59.69;101359.78;5023075;28;19925;-85
2023/03/04 05:07:01;;;;;;;;;;;7.00;74.60;;;5.88;59.40;101360.44;5028908;28;19939;-85
2023/03/04 05:09:28;;;;;;;;;;;7.00;74.70;;;5.84;59.77;101361.75;5028247;28;19929;-85
2023/03/04 05:11:55;;;;;;;;;;;7.00;74.80;;;5.82;59.97;101363.72;5025763;28;20023;-85
2023/03/04 05:14:22;;;;;;;;;;;7.00;74.90;;;5.79;60.38;101362.22;5028813;28;19936;-85
2023/03/04 05:16:51;;;;;;;;;;;7.00;75.10;;;5.82;59.91;101359.25;5023779;28;19936;-85
2023/03/04 05:19:20;;;;;;;;;;;7.00;75.10;;;5.86;60.00;101365.91;5022014;28;19937;-85
2023/03/04 05:21:47;;;;;;;;;;;7.00;75.10;;;5.83;59.95;101368.03;5028759;28;20413;-85
2023/03/04 05:24:14;;;;;;;;;;;7.00;75.10;;;5.82;59.90;101361.09;5030019;28;19936;-85
2023/03/04 05:26:41;;;;;;;;;;;7.00;75.10;;;5.87;60.17;101358.78;5022969;28;20028;-85
2023/03/04 05:29:08;;;;;;;;;;;7.00;75.20;;;5.91;60.10;101360.13;5031038;28;19933;-85
2023/03/04 05:31:35;;;;;;;;;;;7.00;75.20;;;5.87;60.17;101354.31;5030794;28;19931;-86
2023/03/04 05:34:02;;;;;;;;;;;7.00;75.10;;;5.89;59.81;101346.22;5028476;28;20633;-85
2023/03/04 05:36:30;;;;;;;;;;;7.00;75.10;;;5.77;59.61;101342.19;5027769;28;19929;-89
2023/03/04 05:38:59;;;;;;;;;;;7.00;74.60;;;5.75;59.81;101350.28;5011304;28;20479;-91
2023/03/04 05:41:26;;;;;;;;;;;7.00;74.80;;;5.84;60.22;101345.88;5017824;28;20284;-88
2023/03/04 05:43:53;;;;;;;;;;;7.00;75.00;;;5.86;60.10;101343.91;5028965;28;19936;-89
2023/03/04 05:46:24;;;;;;;;;;;7.00;75.10;;;5.92;60.20;101345.94;5025885;28;19983;-89
2023/03/04 05:48:51;;;;;;;;;;;7.00;75.10;;;5.99;59.96;101346.94;5023196;28;20024;-89
2023/03/04 05:51:19;;;;;;;;;;;7.20;75.10;;;5.96;59.84;101344.63;5028179;28;20422;-88
2023/03/04 05:53:47;;;;;;;;;;;7.10;75.20;;;6.00;59.64;101347.78;5030222;28;20399;-88
2023/03/04 05:56:16;;;;;;;;;;;7.10;75.20;;;6.02;59.71;101351.94;5036835;28;19930;-88
2023/03/04 05:58:44;;;;;;;;;;;7.10;75.20;;;6.04;59.53;101355.25;5024058;28;20401;-88
2023/03/04 06:01:11;;;;;;;;;;;7.10;75.20;;;6.02;59.63;101357.22;5024100;28;20012;-88
2023/03/04 06:03:38;;;;;;;;;;;7.10;75.00;;;5.99;59.62;101360.19;5027346;28;19925;-88
2023/03/04 06:06:05;;;;;;;;;;;7.10;75.00;;;6.02;59.74;101357.22;5045173;28;19935;-88
2023/03/04 06:08:32;;;;;;;;;;;7.10;75.00;;;6.03;59.34;101361.53;5044579;28;19925;-89
2023/03/04 06:11:01;;;;;;;;;;;7.10;75.00;;;6.04;59.43;101360.53;5030643;28;19970;-89
2023/03/04 06:13:28;;;;;;;;;;;7.10;74.90;;;6.05;59.38;101369.31;5018427;28;19925;-89
2023/03/04 06:15:56;;;;;;;;;;;7.20;74.80;;;6.05;59.42;101367.50;5027959;28;19929;-90
2023/03/04 06:18:24;;;;;;;;;;;7.20;75.00;;;6.03;59.42;101374.78;5040819;28;19979;-88
2023/03/04 06:20:55;;;;;;;;;;;7.20;74.80;;;6.04;59.28;101371.13;5009443;28;20318;-88
2023/03/04 06:23:22;;;;;;;;;;;7.20;74.70;;;5.99;59.13;101377.88;5033830;28;19936;-89
2023/03/04 06:25:51;;;;;;;;;;;7.20;74.60;;;6.01;59.40;101374.09;5020362;28;20538;-89
2023/03/04 06:28:20;;;;;;;;;;;7.20;74.80;;;5.98;59.56;101377.06;5028413;28;20201;-89
2023/03/04 06:30:47;;;;;;;;;;;7.20;74.60;;;6.03;59.29;101380.06;5027872;28;20292;-89
2023/03/04 06:33:14;;;;;;;;;;;7.20;74.70;;;6.01;59.36;101379.41;5026926;28;19943;-89
2023/03/04 06:35:41;;;;;;;;;;;7.20;74.60;;;6.00;59.34;101385.66;5021607;28;19925;-90
2023/03/04 06:38:08;;;;;;;;;;;7.20;74.50;;;5.86;59.72;101379.13;5044752;28;19931;-86
2023/03/04 06:40:35;;;;;;;;;;;7.10;74.40;;;5.89;59.85;101394.69;5019162;28;19929;-86
2023/03/04 06:43:02;;;;;;;;;;;7.10;74.70;;;5.98;59.57;101390.31;5016720;28;19936;-87
2023/03/04 06:45:31;;;;;;;;;;;7.10;74.70;;;6.00;59.58;101392.78;5021706;28;19972;-86
2023/03/04 06:47:58;;;;;;;;;;;7.20;74.80;;;6.01;59.91;101387.34;5042464;28;20040;-86
2023/03/04 06:50:25;;;;;;;;;;;7.20;74.80;;;6.02;59.53;101391.66;5027606;28;20020;-85
2023/03/04 06:52:52;;;;;;;;;;;7.10;74.90;;;6.00;59.93;101398.06;5043426;28;20024;-86
2023/03/04 06:55:20;;;;;;;;;;;7.10;74.90;;;5.96;59.89;101399.41;5020580;28;19932;-85
2023/03/04 06:57:47;;;;;;;;;;;7.20;75.00;;;5.97;59.78;101390.47;5019454;28;19929;-80
2023/03/04 07:00:15;;;;;;;;;;;7.20;75.20;;;5.95;60.02;101398.56;5029516;28;20125;-78
2023/03/04 07:02:43;;;;;;;;;;;7.20;75.20;;;5.96;60.08;101400.22;5027162;28;20599;-79
2023/03/04 07:05:11;;;;;;;;;;;7.20;75.10;;;6.01;60.11;101403.25;5021168;28;19933;-79
2023/03/04 07:07:38;;;;;;;;;;;7.20;75.20;;;6.05;60.12;101398.44;5009557;28;19949;-79
2023/03/04 07:10:05;;;;;;;;;;;7.20;75.30;;;6.09;60.13;101405.91;5009609;28;19930;-80
2023/03/04 07:12:32;;;;;;;;;;;7.20;75.40;;;6.09;59.77;101400.59;5022454;28;19952;-78
2023/03/04 07:14:59;;;;;;;;;;;7.20;75.20;;;6.07;59.89;101393.81;5027372;28;19935;-78
2023/03/04 07:17:26;;;;;;;;;;;7.20;75.20;;;6.09;60.11;101402.44;5020676;28;20295;-78
2023/03/04 07:19:54;;;;;;;;;;;7.20;75.30;;;6.03;60.05;101401.25;5022123;28;20384;-78
2023/03/04 07:22:21;;;;;;;;;;;7.20;75.50;;;6.02;60.64;101401.41;5017344;28;19933;-78
2023/03/04 07:24:48;;;;;;;;;;;7.20;75.80;;;6.06;60.33;101402.75;5024495;28;19932;-78
2023/03/04 07:27:15;;;;;;;;;;;7.30;75.80;;;6.13;60.65;101403.78;5011786;28;19929;-78
2023/03/04 07:29:42;;;;;;;;;;;7.20;75.80;;;6.13;60.44;101404.59;5016861;28;20331;-78
2023/03/04 07:32:10;;;;;;;;;;;7.20;75.90;;;6.04;60.93;101402.91;5019559;28;19944;-79
2023/03/04 07:34:37;;;;;;;;;;;7.20;76.00;;;6.09;60.83;101408.56;5035910;28;19932;-79
2023/03/04 07:37:05;;;;;;;;;;;7.20;76.00;;;6.13;60.91;101409.91;5023704;28;19925;-78
2023/03/04 07:39:32;;;;;;;;;;;7.20;76.10;;;6.16;60.95;101416.72;5011898;28;19925;-77
2023/03/04 07:41:59;;;;;;;;;;;7.20;76.20;;;6.16;61.04;101412.25;5023695;28;19931;-78
2023/03/04 07:44:26;;;;;;;;;;;7.30;76.50;;;6.18;61.19;101412.91;5015361;28;19948;-78
2023/03/04 07:46:53;;;;;;;;;;;7.30;76.60;;;6.18;61.11;101412.91;5022599;28;20017;-78
2023/03/04 07:49:20;;;;;;;;;;;7.30;76.60;;;6.18;61.28;101409.41;5018181;28;19940;-79
2023/03/04 07:51:47;;;;;;;;;;;7.30;76.70;;;6.20;61.10;101407.47;5017835;28;19925;-79
2023/03/04 07:54:15;;;;;;;;;;;7.30;76.70;;;6.17;61.66;101413.91;5029249;28;19925;-79
2023/03/04 07:56:42;;;;;;;;;;;7.30;77.00;;;6.12;61.83;101408.25;5022060;28;19925;-79
2023/03/04 07:59:09;;;;;;;;;;;7.30;77.10;;;6.13;61.83;101409.91;5027200;28;19927;-79
2023/03/04 08:01:38;;;;;;;;;;;7.30;77.30;;;6.14;62.49;101411.56;5013797;28;20411;-80
2023/03/04 08:04:07;;;;;;;;;;;7.30;77.60;;;6.18;62.48;101404.13;5024210;28;20543;-80
2023/03/04 08:06:35;;;;;;;;;;;7.30;78.00;;;6.17;62.67;101413.91;5028031;28;20375;-80
2023/03/04 08:09:04;;;;;;;;;;;7.30;78.10;;;6.11;62.51;101411.88;5012085;28;19932;-80
2023/03/04 08:11:34;;;;;;;;;;;7.30;78.00;;;6.13;62.59;101406.41;5012284;28;19936;-80
2023/03/04 08:14:01;;;;;;;;;;;7.30;77.90;;;6.14;62.67;101418.66;5022483;28;20487;-80
2023/03/04 08:16:29;;;;;;;;;;;7.30;78.20;;;6.16;63.06;101412.25;5030425;28;19932;-79
2023/03/04 08:18:57;;;;;;;;;;;7.30;78.80;;;6.19;63.32;101411.91;5038744;28;19933;-78
2023/03/04 08:21:25;;;;;;;;;;;7.30;78.90;;;6.17;63.67;101423.66;5025693;28;19925;-79
2023/03/04 08:23:53;;;;;;;;;;;7.30;79.00;;;6.16;63.54;101417.53;5015409;28;19925;-81
2023/03/04 08:26:22;;;;;;;;;;;7.30;79.00;;;6.18;63.50;101420.84;5028205;28;19971;-83
2023/03/04 08:28:51;;;;;;;;;;;7.40;78.80;;;6.25;63.96;101420.22;5029965;28;20387;-80
2023/03/04 08:31:19;;;;;;;;;;;7.40;79.20;;;6.28;63.96;101419.88;5032052;28;19929;-80
2023/03/04 08:33:46;;;;;;;;;;;7.40;79.60;;;6.29;64.06;101425.03;5028633;28;19928;-80
2023/03/04 08:36:14;;;;;;;;;;;7.40;79.60;;;6.28;63.71;101418.06;5028226;28;19934;-80
2023/03/04 08:38:41;;;;;;;;;;;7.40;79.40;;;6.27;64.09;101418.25;5030224;28;19929;-81
2023/03/04 08:41:08;;;;;;;;;;;7.40;79.50;;;6.27;64.00;101408.47;5031717;28;19948;-83
2023/03/04 08:43:35;;;;;;;;;;;7.40;79.60;;;6.29;64.13;101421.53;5031965;28;19929;-82
2023/03/04 08:46:04;;;;;;;;;;;7.40;79.80;;;6.32;64.19;101414.13;5031348;28;19929;-85
2023/03/04 08:48:32;;;;;;;;;;;7.40;79.80;;;6.36;63.91;101412.81;5021612;28;19928;-86
2023/03/04 08:50:59;;;;;;;;;;;7.50;79.80;;;6.37;64.16;101414.47;5040321;28;19929;-88
2023/03/04 08:53:26;;;;;;;;;;;7.50;79.80;;;6.36;63.91;101412.81;5030263;28;20755;-87
2023/03/04 08:55:53;;;;;;;;;;;7.50;79.60;;;6.38;64.43;101421.41;5030303;28;19925;-91
2023/03/04 08:58:20;;;;;;;;;;;7.50;80.00;;;6.39;64.56;101412.50;5029822;28;19925;-89
2023/03/04 09:00:50;;;;;;;;;;;7.50;80.10;;;6.39;65.26;101419.59;5030882;28;20019;-89
2023/03/04 09:03:19;;;;;;;;;;;7.50;80.90;;;6.40;66.34;101419.47;5029183;28;19960;-88
2023/03/04 09:05:47;;;;;;;;;;;7.50;82.40;;;6.39;66.65;101417.81;5042606;28;19936;-88
2023/03/04 09:08:14;;;;;;;;;;;7.50;82.00;;;6.41;66.66;101425.59;5030222;28;19964;-89
2023/03/04 09:10:41;;;;;;;;;;;7.50;82.10;;;6.39;66.87;101417.81;5030177;28;19939;-89
2023/03/04 09:13:10;;;;;;;;;;;7.50;82.30;;;6.40;66.96;101422.09;5029775;28;20019;-89
2023/03/04 09:15:37;;;;;;;;;;;7.50;82.80;;;6.37;66.92;101427.72;5030567;28;20717;-89
2023/03/04 09:18:05;;;;;;;;;;;7.50;82.80;;;6.42;67.62;101427.22;5028984;28;19925;-86
2023/03/04 09:20:34;;;;;;;;;;;7.50;83.40;;;6.40;68.38;101423.94;5155419;22;19976;-74
2023/03/04 09:23:01;;;;;;;;;;;7.50;84.30;;;6.37;69.63;101426.88;5067591;28;19928;-74
2023/03/04 09:25:28;;;;;;;;;;;7.50;85.50;;;6.31;70.76;101423.06;5060435;28;19933;-74
2023/03/04 09:27:55;;;;;;;;;;;7.40;86.60;;;6.25;71.60;101421.06;5069198;28;19928;-75
2023/03/04 09:30:23;;;;;;;;;;;7.30;87.10;;;6.26;71.15;101420.06;5057911;28;19975;-75
2023/03/04 09:32:50;;;;;;;;;;;7.30;86.70;;;6.29;70.98;101422.38;5047475;28;20632;-75
2023/03/04 09:35:17;;;;;;;;;;;7.40;86.50;;;6.37;71.56;101424.25;5046994;28;19987;-75
2023/03/04 09:37:45;;;;;;;;;;;7.40;87.30;;;6.32;72.13;101429.19;5042317;28;19929;-75
2023/03/04 09:40:18;;;;;;;;;;;7.30;87.40;;;6.32;72.75;101421.25;5050856;28;20039;-75
2023/03/04 09:42:48;;;;;;;;;;;7.40;87.90;;;6.37;72.51;101416.28;5043312;28;20035;-75
2023/03/04 09:45:18;;;;;;;;;;;7.40;88.20;;;6.38;73.36;101412.66;5049229;28;19924;-75
2023/03/04 09:47:46;;;;;;;;;;;7.40;88.60;;;6.33;73.92;101415.78;5043936;28;20013;-75
2023/03/04 09:50:13;;;;;;;;;;;7.40;88.70;;;6.30;74.32;101418.75;5049925;28;20297;-74
2023/03/04 09:52:54;;;;;;;;;;;7.40;88.50;;;6.37;75.04;101417.13;5051892;28;19925;-76
2023/03/04 09:55:24;;;;;;;;;;;7.60;89.70;;;6.38;74.78;101415.28;5046702;28;19928;-77
2023/03/04 09:57:55;;;;;;;;;;;7.50;89.30;;;6.41;74.96;101409.69;5049853;28;19929;-76
2023/03/04 10:00:25;;;;;;;;;;;7.50;89.40;;;6.48;75.40;101410.69;5049989;28;19932;-75
2023/03/04 10:03:12;;;;;;;;;;;7.60;89.80;;;6.45;74.14;101416.31;5042095;28;19935;-76
2023/03/04 10:05:43;;;;;;;;;;;7.60;88.60;;;6.42;73.74;101406.03;5044319;28;20390;-76
2023/03/04 10:08:38;;;;;;;;;;;7.60;88.10;;;6.43;73.36;101397.09;5048609;28;19936;-75
2023/03/04 10:11:14;;;;;;;;;;;7.60;87.70;;;6.44;73.11;101404.03;5061397;28;19929;-76
2023/03/04 10:13:50;;;;;;;;;;;7.70;87.70;;;6.45;72.91;101395.13;5047363;28;19931;-76
2023/03/04 10:16:21;;;;;;;;;;;7.60;87.50;;;6.53;72.83;101397.78;5036599;28;20747;-76
2023/03/04 10:18:51;;;;;;;;;;;7.70;87.70;;;6.53;72.79;101387.19;5044226;28;20402;-75
2023/03/04 10:21:23;;;;;;;;;;;7.70;87.40;;;6.54;72.25;101388.88;5043570;28;20403;-76
2023/03/04 10:23:53;;;;;;;;;;;7.70;87.30;;;6.58;71.93;101389.34;5045017;28;20413;-76
2023/03/04 10:26:21;;;;;;;;;;;7.70;87.10;;;6.63;72.36;101390.50;5047113;28;19990;-78
2023/03/04 10:28:49;;;;;;;;;;;7.70;87.30;;;6.62;71.91;101394.16;5048351;28;19928;-76
2023/03/04 10:31:21;;;;;;;;;;;7.70;87.10;;;6.60;71.25;101388.22;5043523;28;19925;-75
2023/03/04 10:33:49;;;;;;;;;;;7.60;86.30;;;6.60;71.17;101390.84;5061574;28;20402;-75
2023/03/04 10:36:43;;;;;;;;;;;7.70;86.90;;;6.61;71.21;101379.25;5037653;28;19925;-75
2023/03/04 10:39:13;;;;;;;;;;;7.70;87.00;;;6.65;71.22;101387.72;5039400;28;19935;-75
2023/03/04 10:41:43;;;;;;;;;;;7.70;86.90;;;6.66;71.61;101378.78;5049152;28;19960;-76
2023/03/04 10:44:16;;;;;;;;;;;7.70;86.90;;;6.71;72.09;101373.81;5047881;28;20337;-75
2023/03/04 10:46:45;;;;;;;;;;;7.80;87.50;;;6.78;71.89;101380.09;5045654;28;19929;-74
2023/03/04 10:49:14;;;;;;;;;;;7.90;87.20;;;6.81;71.33;101382.44;5040590;28;19925;-74
2023/03/04 10:51:43;;;;;;;;;;;7.90;86.70;;;6.81;70.90;101381.59;5046885;28;20646;-73
2023/03/04 10:54:22;;;;;;;;;;;7.90;86.20;;;6.82;70.36;101385.91;5034294;28;19929;-73
2023/03/04 10:56:56;;;;;;;;;;;7.90;86.10;;;6.77;70.61;101382.91;5044568;28;19935;-74
2023/03/04 10:59:55;;;;;;;;;;;8.00;86.30;;;6.76;70.52;101384.75;5047571;28;19935;-74
2023/03/04 11:02:27;;;;;;;;;;;7.90;86.40;;;6.77;70.92;101388.22;4995261;28;21781;-75
2023/03/04 11:04:57;;;;;;;;;;;7.90;86.40;;;6.77;71.28;101383.75;5034795;28;19933;-75
2023/03/04 11:07:26;;;;;;;;;;;7.90;86.70;;;6.85;71.42;101373.16;5037329;28;20027;-76
2023/03/04 11:09:54;;;;;;;;;;;8.00;86.70;;;6.91;71.40;101379.63;5047944;28;19928;-75
2023/03/04 11:12:31;;;;;;;;;;;8.00;87.10;;;7.01;71.56;101382.13;5038886;28;19932;-75
2023/03/04 11:14:58;;;;;;;;;;;8.10;86.80;;;7.03;71.29;101370.38;5040578;28;20027;-75
2023/03/04 11:17:27;;;;;;;;;;;8.30;86.70;;;7.07;70.99;101373.50;5048937;28;19962;-76
2023/03/04 11:19:58;;;;;;;;;;;8.10;86.70;;;7.03;70.51;101378.31;5048739;28;19963;-75
2023/03/04 11:22:26;;;;;;;;;;;8.10;86.00;;;7.08;70.38;101362.75;5044777;28;19928;-74
2023/03/04 11:25:01;;;;;;;;;;;8.20;86.10;;;7.08;70.52;101360.09;5045766;28;19962;-75
2023/03/04 11:27:36;;;;;;;;;;;8.20;86.30;;;7.08;70.87;101353.97;5041794;28;19939;-76
2023/03/04 11:30:16;;;;;;;;;;;8.20;86.30;;;7.08;70.43;101352.13;5038036;28;19929;-73